Terminal Aerodrome Forecast
Issued by NWS

Home | Current Version | Previous Version | Text Only | Print | Product List | Glossary On
Versions: 1 2 3 4 5 6 7 8 9 10 11 12 13 14 15 16 17 18 19 20 21
535
FTPA31 PHFO 240940 AAE
TAFHMK
TAF AMD
PHMK 240940Z 2410/2506 VRB10G20KT 4SM SHRA VCTS SCT015CB BKN025
      TEMPO 2410/2412 1SM TSRA BKN005CB OVC012
     FM241200 VRB10G20KT 5SM -SHRA VCTS SCT005CB BKN015
      TEMPO 2412/2414 2SM RA BR OVC005
     FM241800 33010G18KT 6SM -SHRA BKN015 OVC025
     FM242200 35012G20KT P6SM VCSH BKN020 OVC035=

USA.gov is the U.S. government's official web portal to all federal, state and local government web resources and services.